RORA(METAR)
12/11 16:00
RORA 110700Z 17013KT 9999 BKN012 BKN030 24/22 Q1013 RMK A2993=
戻る
トップページへ戻る
IMOC Co,.Ltd.